createdAt,value
2023-02-02T00:01:26.653Z,3.15
2023-02-02T00:06:31.280Z,2.72
2023-02-02T00:11:34.540Z,2.63
2023-02-02T00:16:47.335Z,2.65
2023-02-02T00:21:50.663Z,1.85
2023-02-02T00:26:55.893Z,1.42
2023-02-02T00:37:03.680Z,2.13
2023-02-02T00:42:06.915Z,2.22
2023-02-02T00:47:11.739Z,1.73
2023-02-02T00:52:15.287Z,2.38
2023-02-02T00:57:18.547Z,1.52
2023-02-02T01:02:23.342Z,2.83
2023-02-02T01:07:26.667Z,1.30
2023-02-02T01:19:50.766Z,2.90
2023-02-02T01:24:53.934Z,1.80
2023-02-02T01:29:58.767Z,1.85
2023-02-02T01:35:03.840Z,2.05
2023-02-02T01:40:08.455Z,2.08
2023-02-02T01:45:23.950Z,1.57
2023-02-02T01:50:31.627Z,2.22
2023-02-02T01:55:38.468Z,2.45
2023-02-02T02:00:44.656Z,2.28
2023-02-02T02:05:52.272Z,1.35
2023-02-02T02:10:56.656Z,2.13
2023-02-02T02:16:21.301Z,1.88
2023-02-02T02:22:13.778Z,1.88
2023-02-02T02:27:45.437Z,1.77
2023-02-02T02:32:58.676Z,2.72
2023-02-02T02:38:09.980Z,1.75
2023-02-02T02:43:19.966Z,1.65
2023-02-02T02:48:26.097Z,1.17
2023-02-02T02:53:29.336Z,2.40
2023-02-02T02:58:41.568Z,1.83
2023-02-02T03:04:08.524Z,1.77
2023-02-02T03:09:16.344Z,1.70
2023-02-02T03:14:19.528Z,1.30
2023-02-02T03:19:24.822Z,1.70
2023-02-02T03:24:27.912Z,1.38
2023-02-02T03:29:31.086Z,1.40
2023-02-02T03:34:35.650Z,1.20
2023-02-02T03:39:39.304Z,1.58
2023-02-02T03:44:42.540Z,0.73
2023-02-02T03:49:47.013Z,1.40
2023-02-02T03:54:50.135Z,0.93
2023-02-02T03:59:53.650Z,1.40
2023-02-02T04:04:58.307Z,2.35
2023-02-02T04:10:01.710Z,1.48
2023-02-02T04:15:06.577Z,0.65
2023-02-02T04:20:12.546Z,1.20
2023-02-02T04:25:15.816Z,0.93
2023-02-02T04:30:20.031Z,1.65
2023-02-02T04:35:25.167Z,0.67
2023-02-02T04:40:28.456Z,0.68
2023-02-02T04:45:31.574Z,2.45
2023-02-02T04:50:36.204Z,1.35
2023-02-02T04:55:39.629Z,1.38
2023-02-02T05:00:42.766Z,1.23
2023-02-02T05:05:47.169Z,1.00
2023-02-02T05:10:50.539Z,2.03
2023-02-02T05:15:55.022Z,1.85
2023-02-02T05:21:01.666Z,1.33
2023-02-02T05:26:05.285Z,2.08
2023-02-02T05:31:08.720Z,1.63
2023-02-02T05:36:13.579Z,1.23
2023-02-02T05:41:17.017Z,1.10
2023-02-02T05:46:20.197Z,1.20
2023-02-02T05:51:29.513Z,2.13
2023-02-02T05:56:32.718Z,1.63
2023-02-02T06:01:36.097Z,1.08
2023-02-02T06:07:05.597Z,0.90
2023-02-02T06:12:09.837Z,2.00
2023-02-02T06:17:13.060Z,1.20
2023-02-02T06:22:17.853Z,1.70
2023-02-02T06:27:21.454Z,1.77
2023-02-02T06:32:24.583Z,1.05
2023-02-02T06:37:30.685Z,1.30
2023-02-02T06:42:34.248Z,1.15
2023-02-02T06:47:39.285Z,1.63
2023-02-02T06:52:49.276Z,1.67
2023-02-02T06:57:57.176Z,0.98
2023-02-02T07:03:01.320Z,1.40
2023-02-02T07:08:06.038Z,1.30
2023-02-02T07:13:09.890Z,1.17
2023-02-02T07:18:13.221Z,1.63
2023-02-02T07:23:17.657Z,0.95
2023-02-02T07:28:20.678Z,1.40
2023-02-02T07:33:29.948Z,1.10
2023-02-02T07:38:34.550Z,1.00
2023-02-02T07:43:37.967Z,0.75
2023-02-02T07:48:47.172Z,0.80
2023-02-02T07:53:53.711Z,1.05
2023-02-02T07:58:59.956Z,0.88
2023-02-02T08:04:03.547Z,1.58
2023-02-02T08:09:09.244Z,1.30
2023-02-02T08:14:14.227Z,1.27
2023-02-02T08:19:18.077Z,1.70
2023-02-02T08:24:22.684Z,1.00
2023-02-02T08:29:26.093Z,1.77
2023-02-02T08:34:29.694Z,2.08
2023-02-02T08:39:34.417Z,1.70
2023-02-02T08:45:01.322Z,1.17
2023-02-02T08:50:00.793Z,1.05
2023-02-02T08:55:07.123Z,1.08
2023-02-02T09:00:11.949Z,1.60
2023-02-02T09:05:15.894Z,1.10
2023-02-02T09:10:20.340Z,0.95
2023-02-02T09:15:24.003Z,2.43
2023-02-02T09:20:27.546Z,0.88
2023-02-02T09:25:31.837Z,1.02
2023-02-02T09:30:35.029Z,1.00
2023-02-02T09:35:38.176Z,1.13
2023-02-02T09:40:43.019Z,0.95
2023-02-02T09:45:54.446Z,0.87
2023-02-02T09:51:00.949Z,1.92
2023-02-02T09:56:08.363Z,1.40
2023-02-02T10:01:14.509Z,0.90
2023-02-02T10:06:28.219Z,1.30
2023-02-02T10:11:37.209Z,1.65
2023-02-02T10:16:41.123Z,1.73
2023-02-02T10:21:51.510Z,1.35
2023-02-02T10:26:58.103Z,0.90
2023-02-02T10:32:12.641Z,1.25
2023-02-02T10:37:26.425Z,1.02
2023-02-02T10:42:42.098Z,1.08
2023-02-02T10:47:45.784Z,1.02
2023-02-02T10:58:15.000Z,1.13
2023-02-02T11:03:20.761Z,1.42
2023-02-02T11:08:29.181Z,1.10
2023-02-02T11:13:40.313Z,1.10
2023-02-02T11:18:44.474Z,0.93
2023-02-02T11:24:02.364Z,1.08
2023-02-02T11:29:14.918Z,1.00
2023-02-02T11:34:20.892Z,2.03
2023-02-02T11:39:24.218Z,1.13
2023-02-02T11:44:30.181Z,1.13
2023-02-02T11:49:41.641Z,0.80
2023-02-02T11:54:49.174Z,0.68
2023-02-02T12:00:15.131Z,0.70
2023-02-02T12:05:36.951Z,1.05
2023-02-02T12:10:45.962Z,1.60
2023-02-02T12:16:01.506Z,1.30
2023-02-02T12:21:06.899Z,0.63
2023-02-02T12:26:23.989Z,0.95
2023-02-02T12:31:37.788Z,0.82
2023-02-02T12:36:49.834Z,1.63
2023-02-02T12:42:18.407Z,0.85
2023-02-02T12:47:28.767Z,0.70
2023-02-02T12:52:44.634Z,1.20
2023-02-02T12:57:55.439Z,0.93
2023-02-02T13:03:15.423Z,0.90
2023-02-02T13:08:21.785Z,1.35
2023-02-02T13:13:30.126Z,0.68
2023-02-02T13:18:38.870Z,0.90
2023-02-02T13:23:45.995Z,0.93
2023-02-02T13:28:52.523Z,1.20
2023-02-02T13:34:04.784Z,0.80
2023-02-02T13:39:14.870Z,0.93
2023-02-02T13:44:24.721Z,0.90
2023-02-02T13:49:35.163Z,0.90
2023-02-02T13:55:11.366Z,1.25
2023-02-02T14:00:19.299Z,1.13
2023-02-02T14:05:26.920Z,0.95
2023-02-02T14:10:33.946Z,0.82
2023-02-02T14:15:39.227Z,0.82
2023-02-02T14:20:46.661Z,1.13
2023-02-02T14:26:05.106Z,2.70
2023-02-02T14:31:29.619Z,1.15
2023-02-02T14:36:39.206Z,1.48
2023-02-02T14:42:31.567Z,1.15
2023-02-02T14:47:43.177Z,0.82
2023-02-02T14:53:05.330Z,0.95
2023-02-02T14:58:09.846Z,1.10
2023-02-02T15:03:49.654Z,0.82
2023-02-02T15:09:29.403Z,2.17
2023-02-02T15:14:40.400Z,0.93
2023-02-02T15:19:48.109Z,4.75
2023-02-02T15:24:53.056Z,1.08
2023-02-02T15:30:02.922Z,1.00
2023-02-02T15:35:13.290Z,1.55
2023-02-02T15:40:23.494Z,4.40
2023-02-02T15:45:44.509Z,1.48
2023-02-02T15:50:51.189Z,1.80
2023-02-02T15:55:56.541Z,1.90
2023-02-02T16:01:04.264Z,0.82
2023-02-02T16:06:08.005Z,0.82
2023-02-02T16:11:13.557Z,0.95
2023-02-02T16:16:27.211Z,0.73
2023-02-02T16:21:31.955Z,1.17
2023-02-02T16:26:36.564Z,1.17
2023-02-02T16:31:41.640Z,1.08
2023-02-02T16:36:44.897Z,1.27
2023-02-02T16:41:49.395Z,2.40
2023-02-02T16:46:54.705Z,5.18
2023-02-02T16:57:18.407Z,6.13
2023-02-02T17:02:29.760Z,4.72
2023-02-02T17:07:35.605Z,4.72
2023-02-02T17:12:39.233Z,2.10
2023-02-02T17:17:44.948Z,3.40
2023-02-02T17:27:53.667Z,2.87
2023-02-02T17:33:01.332Z,3.85
2023-02-02T17:38:05.173Z,2.67
2023-02-02T17:43:11.754Z,2.55
2023-02-02T17:48:16.600Z,2.85
2023-02-02T17:58:24.079Z,4.73
2023-02-02T18:03:34.252Z,3.83
2023-02-02T18:08:38.033Z,3.92
2023-02-02T18:13:45.091Z,3.88
2023-02-02T18:18:49.770Z,4.72
2023-02-02T18:23:52.955Z,5.20
2023-02-02T18:28:56.505Z,3.70
2023-02-02T18:34:00.975Z,3.65
2023-02-02T18:39:04.360Z,3.67
2023-02-02T18:44:07.954Z,4.20
2023-02-02T18:49:12.480Z,2.63
2023-02-02T18:54:15.777Z,6.85
2023-02-02T18:59:19.550Z,5.88
2023-02-02T19:04:24.224Z,7.10
2023-02-02T19:09:27.456Z,4.72
2023-02-02T19:14:33.222Z,3.97
2023-02-02T19:19:40.234Z,4.65
2023-02-02T19:24:44.397Z,3.45
2023-02-02T19:29:50.897Z,4.63
2023-02-02T19:34:58.654Z,2.40
2023-02-02T19:40:15.685Z,2.60
2023-02-02T19:45:25.553Z,5.80
2023-02-02T19:50:37.872Z,3.97
2023-02-02T19:55:43.972Z,3.20
2023-02-02T20:00:48.190Z,2.03
2023-02-02T20:05:55.591Z,3.00
2023-02-02T20:11:03.507Z,2.88
2023-02-02T20:16:11.718Z,3.50
2023-02-02T20:21:23.673Z,2.88
2023-02-02T20:26:29.744Z,3.00
2023-02-02T20:31:37.372Z,2.58
2023-02-02T20:36:44.455Z,3.17
2023-02-02T20:41:48.325Z,3.15
2023-02-02T20:46:51.602Z,3.72
2023-02-02T20:51:57.830Z,3.40
2023-02-02T20:57:02.492Z,3.10
2023-02-02T21:02:06.488Z,3.00
2023-02-02T21:07:11.459Z,3.13
2023-02-02T21:12:15.708Z,3.50
2023-02-02T21:17:19.683Z,2.27
2023-02-02T21:22:24.267Z,2.58
2023-02-02T21:27:27.784Z,3.60
2023-02-02T21:32:31.025Z,3.08
2023-02-02T21:37:37.386Z,2.53
2023-02-02T21:42:46.602Z,2.47
2023-02-02T21:47:52.615Z,3.63
2023-02-02T21:53:13.953Z,2.80
2023-02-02T21:58:21.827Z,2.75
2023-02-02T22:03:28.631Z,4.15
2023-02-02T22:08:37.230Z,2.65
2023-02-02T22:13:40.356Z,2.60
2023-02-02T22:18:43.942Z,2.97
2023-02-02T22:23:49.485Z,2.72
2023-02-02T22:28:53.388Z,3.35
2023-02-02T22:33:57.011Z,3.17
2023-02-02T22:39:01.490Z,3.10
2023-02-02T22:44:06.408Z,2.83
2023-02-02T22:49:09.768Z,3.13
2023-02-02T22:54:14.370Z,2.28
2023-02-02T22:59:17.555Z,3.00
2023-02-02T23:04:20.749Z,3.53
2023-02-02T23:09:25.417Z,3.42
2023-02-02T23:14:28.906Z,1.98
2023-02-02T23:19:32.254Z,3.05
2023-02-02T23:24:37.143Z,3.85
2023-02-02T23:34:43.827Z,2.22
2023-02-02T23:39:48.346Z,3.15
2023-02-02T23:44:51.923Z,2.17
2023-02-02T23:49:56.249Z,2.28
2023-02-02T23:55:02.335Z,2.47
